createdAt,value
2023-06-17T00:01:27.144Z,16.87
2023-06-17T00:03:54.649Z,16.88
2023-06-17T00:06:21.988Z,16.84
2023-06-17T00:08:50.007Z,16.83
2023-06-17T00:11:17.461Z,16.81
2023-06-17T00:13:44.895Z,16.79
2023-06-17T00:16:14.094Z,16.75
2023-06-17T00:18:42.596Z,16.72
2023-06-17T00:21:10.492Z,16.68
2023-06-17T00:23:37.836Z,16.72
2023-06-17T00:26:05.205Z,16.75
2023-06-17T00:28:32.893Z,16.77
2023-06-17T00:31:00.077Z,16.76
2023-06-17T00:33:27.451Z,16.75
2023-06-17T00:35:55.967Z,16.75
2023-06-17T00:38:23.552Z,16.72
2023-06-17T00:40:50.869Z,16.73
2023-06-17T00:43:18.213Z,16.71
2023-06-17T00:45:45.588Z,16.66
2023-06-17T00:48:13.189Z,16.62
2023-06-17T00:50:41.910Z,16.62
2023-06-17T00:53:11.012Z,16.56
2023-06-17T00:55:40.789Z,16.53
2023-06-17T00:58:08.961Z,16.48
2023-06-17T01:00:37.533Z,16.47
2023-06-17T01:03:06.795Z,16.44
2023-06-17T01:05:34.316Z,16.45
2023-06-17T01:08:27.024Z,16.45
2023-06-17T01:11:03.133Z,16.43
2023-06-17T01:13:32.249Z,16.42
2023-06-17T01:16:03.317Z,16.43
2023-06-17T01:18:31.261Z,16.44
2023-06-17T01:21:00.400Z,16.43
2023-06-17T01:23:36.233Z,16.44
2023-06-17T01:26:04.237Z,16.46
2023-06-17T01:28:34.577Z,16.42
2023-06-17T01:31:02.245Z,16.42
2023-06-17T01:33:29.547Z,16.40
2023-06-17T01:36:01.665Z,16.35
2023-06-17T01:38:49.631Z,16.31
2023-06-17T01:41:27.978Z,16.22
2023-06-17T01:43:58.611Z,16.22
2023-06-17T01:46:26.234Z,16.21
2023-06-17T01:48:57.236Z,16.23
2023-06-17T01:51:24.531Z,16.23
2023-06-17T01:53:52.210Z,16.21
2023-06-17T01:56:19.517Z,16.23
2023-06-17T01:58:47.915Z,16.22
2023-06-17T02:01:16.020Z,16.18
2023-06-17T02:03:43.804Z,16.18
2023-06-17T02:06:11.921Z,16.13
2023-06-17T02:08:39.789Z,16.16
2023-06-17T02:11:07.266Z,16.16
2023-06-17T02:13:34.664Z,16.16
2023-06-17T02:16:01.955Z,16.14
2023-06-17T02:18:29.504Z,16.12
2023-06-17T02:20:57.124Z,16.04
2023-06-17T02:23:24.515Z,16.08
2023-06-17T02:25:53.606Z,16.06
2023-06-17T02:28:21.025Z,16.03
2023-06-17T02:30:48.385Z,15.98
2023-06-17T02:33:19.418Z,16.03
2023-06-17T02:35:47.178Z,16.03
2023-06-17T02:38:15.232Z,16.06
2023-06-17T02:40:42.788Z,16.06
2023-06-17T02:43:10.243Z,16.06
2023-06-17T02:45:37.568Z,16.01
2023-06-17T02:48:05.199Z,16.03
2023-06-17T02:50:32.552Z,16.00
2023-06-17T02:52:59.974Z,16.05
2023-06-17T02:55:30.748Z,16.06
2023-06-17T02:58:02.227Z,16.05
2023-06-17T03:00:37.437Z,16.05
2023-06-17T03:03:04.914Z,16.07
2023-06-17T03:05:32.174Z,16.06
2023-06-17T03:07:59.926Z,16.08
2023-06-17T03:10:27.250Z,16.10
2023-06-17T03:13:03.700Z,16.07
2023-06-17T03:15:32.096Z,16.14
2023-06-17T03:17:59.582Z,16.16
2023-06-17T03:20:30.062Z,16.15
2023-06-17T03:22:57.851Z,16.18
2023-06-17T03:25:25.914Z,16.21
2023-06-17T03:27:53.841Z,16.20
2023-06-17T03:30:23.724Z,16.20
2023-06-17T03:32:51.286Z,16.20
2023-06-17T03:35:18.785Z,16.23
2023-06-17T03:37:46.137Z,16.20
2023-06-17T03:40:15.083Z,16.20
2023-06-17T03:42:43.397Z,16.16
2023-06-17T03:45:11.373Z,16.13
2023-06-17T03:47:38.789Z,16.13
2023-06-17T03:50:07.755Z,16.09
2023-06-17T03:52:35.503Z,16.14
2023-06-17T03:55:02.991Z,16.13
2023-06-17T03:57:30.544Z,16.11
2023-06-17T03:59:58.475Z,16.15
2023-06-17T04:02:25.773Z,16.17
2023-06-17T04:04:54.049Z,16.15
2023-06-17T04:07:22.415Z,16.21
2023-06-17T04:10:02.199Z,16.23
2023-06-17T04:12:34.714Z,16.33
2023-06-17T04:15:02.168Z,16.37
2023-06-17T04:17:30.144Z,16.39
2023-06-17T04:20:00.301Z,16.38
2023-06-17T04:22:27.735Z,16.44
2023-06-17T04:24:57.294Z,16.48
2023-06-17T04:27:25.222Z,16.45
2023-06-17T04:29:53.212Z,16.48
2023-06-17T04:32:20.443Z,16.48
2023-06-17T04:34:49.282Z,16.50
2023-06-17T04:37:17.641Z,16.55
2023-06-17T04:39:45.907Z,16.50
2023-06-17T04:42:17.519Z,16.55
2023-06-17T04:44:45.488Z,16.60
2023-06-17T04:47:13.727Z,16.66
2023-06-17T04:49:42.904Z,16.70
2023-06-17T04:52:10.346Z,16.70
2023-06-17T04:54:38.180Z,16.83
2023-06-17T04:57:05.893Z,16.89
2023-06-17T04:59:33.694Z,16.96
2023-06-17T05:02:03.023Z,17.03
2023-06-17T05:04:30.705Z,17.09
2023-06-17T05:06:57.893Z,17.09
2023-06-17T05:09:25.368Z,17.18
2023-06-17T05:11:53.002Z,17.17
2023-06-17T05:14:21.450Z,17.18
2023-06-17T05:16:49.636Z,17.19
2023-06-17T05:19:17.304Z,17.22
2023-06-17T05:21:44.807Z,17.23
2023-06-17T05:24:15.331Z,17.26
2023-06-17T05:26:42.706Z,17.27
2023-06-17T05:29:10.293Z,17.20
2023-06-17T05:31:39.847Z,17.27
2023-06-17T05:34:07.360Z,17.27
2023-06-17T05:36:35.397Z,17.27
2023-06-17T05:39:02.972Z,17.28
2023-06-17T05:41:30.308Z,17.33
2023-06-17T05:43:57.865Z,17.34
2023-06-17T05:46:25.477Z,17.35
2023-06-17T05:48:52.879Z,17.38
2023-06-17T05:51:21.236Z,17.32
2023-06-17T05:53:48.560Z,17.50
2023-06-17T05:56:16.039Z,17.61
2023-06-17T05:58:43.544Z,17.68
2023-06-17T06:01:19.588Z,17.79
2023-06-17T06:03:47.084Z,17.83
2023-06-17T06:06:14.419Z,17.87
2023-06-17T06:08:41.941Z,17.96
2023-06-17T06:11:09.188Z,18.03
2023-06-17T06:13:36.581Z,18.09
2023-06-17T06:16:05.163Z,18.09
2023-06-17T06:18:33.581Z,18.15
2023-06-17T06:21:01.076Z,18.17
2023-06-17T06:23:28.695Z,18.22
2023-06-17T06:25:56.556Z,18.27
2023-06-17T06:28:23.925Z,18.23
2023-06-17T06:30:51.296Z,18.26
2023-06-17T06:33:18.758Z,18.31
2023-06-17T06:35:46.051Z,18.32
2023-06-17T06:38:17.796Z,18.38
2023-06-17T06:40:45.854Z,18.59
2023-06-17T06:43:13.357Z,18.87
2023-06-17T06:45:55.128Z,19.28
2023-06-17T06:48:23.922Z,19.63
2023-06-17T06:50:51.577Z,19.93
2023-06-17T06:53:22.754Z,20.19
2023-06-17T06:55:51.391Z,20.33
2023-06-17T06:58:19.659Z,20.52
2023-06-17T07:00:47.098Z,20.73
2023-06-17T07:03:14.838Z,20.98
2023-06-17T07:05:42.252Z,21.11
2023-06-17T07:08:11.488Z,21.22
2023-06-17T07:10:42.411Z,21.40
2023-06-17T07:13:11.234Z,21.54
2023-06-17T07:15:41.520Z,21.73
2023-06-17T07:18:09.421Z,21.80
2023-06-17T07:20:36.796Z,21.85
2023-06-17T07:23:04.078Z,21.99
2023-06-17T07:25:31.792Z,22.12
2023-06-17T07:28:01.302Z,22.33
2023-06-17T07:30:29.196Z,22.47
2023-06-17T07:32:57.588Z,22.67
2023-06-17T07:35:26.300Z,22.83
2023-06-17T07:37:54.230Z,23.01
2023-06-17T07:40:22.513Z,23.13
2023-06-17T07:42:50.044Z,23.32
2023-06-17T07:45:17.434Z,23.49
2023-06-17T07:47:44.828Z,23.56
2023-06-17T07:50:12.428Z,23.69
2023-06-17T07:52:39.931Z,23.81
2023-06-17T07:55:09.936Z,23.96
2023-06-17T07:57:37.812Z,24.20
2023-06-17T08:00:14.549Z,24.30
2023-06-17T08:02:44.363Z,24.37
2023-06-17T08:05:12.188Z,24.45
2023-06-17T08:07:39.519Z,24.51
2023-06-17T08:10:09.842Z,24.60
2023-06-17T08:12:37.745Z,24.66
2023-06-17T08:15:05.501Z,24.63
2023-06-17T08:17:33.203Z,24.69
2023-06-17T08:20:01.278Z,24.74
2023-06-17T08:22:28.565Z,24.75
2023-06-17T08:24:55.940Z,24.80
2023-06-17T08:27:23.261Z,24.92
2023-06-17T08:29:50.631Z,25.04
2023-06-17T08:32:18.027Z,25.11
2023-06-17T08:34:45.610Z,25.16
2023-06-17T08:37:12.845Z,25.23
2023-06-17T08:39:41.181Z,25.24
2023-06-17T08:42:10.344Z,25.28
2023-06-17T08:44:42.762Z,25.36
2023-06-17T08:47:15.078Z,25.43
2023-06-17T08:49:45.610Z,25.49
2023-06-17T08:52:15.684Z,25.55
2023-06-17T08:54:42.992Z,25.50
2023-06-17T08:57:16.652Z,25.47
2023-06-17T08:59:44.089Z,25.52
2023-06-17T09:02:14.320Z,25.60
2023-06-17T09:04:41.906Z,25.67
2023-06-17T09:07:10.943Z,25.74
2023-06-17T09:09:38.884Z,25.83
2023-06-17T09:12:07.282Z,25.90
2023-06-17T09:14:35.445Z,25.95
2023-06-17T09:17:04.533Z,26.08
2023-06-17T09:19:35.163Z,26.15
2023-06-17T09:22:09.712Z,26.32
2023-06-17T09:24:44.427Z,26.34
2023-06-17T09:27:22.782Z,26.47
2023-06-17T09:30:08.037Z,26.51
2023-06-17T09:32:44.309Z,26.58
2023-06-17T09:35:16.009Z,26.62
2023-06-17T09:38:03.179Z,26.69
2023-06-17T09:40:35.113Z,26.81
2023-06-17T09:43:25.171Z,26.93
2023-06-17T09:45:56.756Z,27.03
2023-06-17T09:48:31.205Z,27.15
2023-06-17T09:50:58.858Z,27.07
2023-06-17T09:53:31.252Z,27.11
2023-06-17T09:56:01.496Z,27.22
2023-06-17T09:58:32.683Z,27.31
2023-06-17T10:01:02.186Z,27.43
2023-06-17T10:03:29.599Z,27.39
2023-06-17T10:06:08.471Z,27.29
2023-06-17T10:08:41.630Z,27.57
2023-06-17T10:11:09.197Z,27.73
2023-06-17T10:13:38.287Z,27.81
2023-06-17T10:16:11.195Z,27.83
2023-06-17T10:18:41.298Z,27.95
2023-06-17T10:21:10.236Z,27.89
2023-06-17T10:23:38.745Z,27.95
2023-06-17T10:26:09.934Z,28.09
2023-06-17T10:28:58.106Z,28.16
2023-06-17T10:31:27.627Z,28.23
2023-06-17T10:33:57.291Z,28.31
2023-06-17T10:36:26.036Z,28.35
2023-06-17T10:39:06.080Z,28.07
2023-06-17T10:41:39.836Z,27.94
2023-06-17T10:44:26.678Z,28.06
2023-06-17T10:46:55.314Z,27.68
2023-06-17T10:49:23.623Z,27.22
2023-06-17T10:51:58.304Z,26.85
2023-06-17T10:54:32.043Z,26.46
2023-06-17T10:57:04.113Z,26.29
2023-06-17T10:59:33.581Z,26.21
2023-06-17T11:02:08.593Z,25.89
2023-06-17T11:04:38.372Z,25.52
2023-06-17T11:07:06.666Z,25.07
2023-06-17T11:09:36.282Z,24.68
2023-06-17T11:12:05.517Z,24.38
2023-06-17T11:14:39.023Z,24.09
2023-06-17T11:17:09.159Z,23.83
2023-06-17T11:19:36.347Z,23.51
2023-06-17T11:22:07.727Z,23.32
2023-06-17T11:24:36.530Z,23.19
2023-06-17T11:27:07.108Z,23.09
2023-06-17T11:29:34.759Z,22.97
2023-06-17T11:32:03.524Z,22.88
2023-06-17T11:34:33.511Z,22.88
2023-06-17T11:37:02.499Z,22.94
2023-06-17T11:39:32.264Z,22.99
2023-06-17T11:42:03.690Z,23.03
2023-06-17T11:44:33.033Z,23.03
2023-06-17T11:47:05.512Z,23.08
2023-06-17T11:49:32.893Z,23.12
2023-06-17T11:52:11.179Z,23.08
2023-06-17T11:54:52.217Z,22.99
2023-06-17T11:57:22.326Z,22.98
2023-06-17T11:59:51.377Z,22.97
2023-06-17T12:02:19.739Z,23.00
2023-06-17T12:04:48.062Z,23.09
2023-06-17T12:07:15.676Z,23.42
2023-06-17T12:09:54.595Z,23.73
2023-06-17T12:12:36.130Z,24.10
2023-06-17T12:15:15.057Z,24.25
2023-06-17T12:17:46.795Z,24.03
2023-06-17T12:20:19.554Z,23.82
2023-06-17T12:22:49.477Z,23.68
2023-06-17T12:25:16.915Z,23.55
2023-06-17T12:27:44.790Z,23.47
2023-06-17T12:30:13.935Z,23.41
2023-06-17T12:32:42.079Z,23.32
2023-06-17T12:35:13.656Z,23.26
2023-06-17T12:37:42.803Z,23.35
2023-06-17T12:40:10.988Z,23.22
2023-06-17T12:42:38.536Z,23.10
2023-06-17T12:45:07.533Z,23.05
2023-06-17T12:47:35.756Z,22.94
2023-06-17T12:50:03.865Z,22.83
2023-06-17T12:52:31.768Z,22.72
2023-06-17T12:55:00.520Z,22.64
2023-06-17T12:57:28.788Z,22.59
2023-06-17T12:59:56.281Z,22.67
2023-06-17T13:02:23.687Z,22.70
2023-06-17T13:04:51.156Z,22.66
2023-06-17T13:07:18.962Z,22.64
2023-06-17T13:09:46.287Z,22.66
2023-06-17T13:12:15.131Z,22.65
2023-06-17T13:14:42.657Z,22.68
2023-06-17T13:17:11.361Z,22.64
2023-06-17T13:19:38.960Z,22.66
2023-06-17T13:22:06.932Z,22.62
2023-06-17T13:24:34.715Z,22.54
2023-06-17T13:27:02.976Z,22.47
2023-06-17T13:31:57.656Z,22.44
2023-06-17T13:34:25.010Z,22.44
2023-06-17T13:36:52.450Z,22.44
2023-06-17T13:39:19.982Z,22.38
2023-06-17T13:41:47.432Z,22.31
2023-06-17T13:44:15.043Z,22.22
2023-06-17T13:46:42.327Z,22.11
2023-06-17T13:49:09.692Z,21.98
2023-06-17T13:51:37.080Z,21.79
2023-06-17T13:54:04.637Z,21.66
2023-06-17T13:56:32.195Z,21.60
2023-06-17T13:58:59.889Z,21.47
2023-06-17T14:01:27.276Z,21.31
2023-06-17T14:03:54.970Z,21.16
2023-06-17T14:06:22.910Z,21.05
2023-06-17T14:08:50.312Z,20.97
2023-06-17T14:11:17.616Z,20.94
2023-06-17T14:13:45.072Z,20.95
2023-06-17T14:16:13.216Z,20.95
2023-06-17T14:18:40.733Z,20.92
2023-06-17T14:21:08.549Z,20.96
2023-06-17T14:23:51.974Z,20.98
2023-06-17T14:26:19.552Z,20.91
2023-06-17T14:28:47.010Z,20.80
2023-06-17T14:31:14.507Z,20.77
2023-06-17T14:33:41.902Z,20.74
2023-06-17T14:36:09.664Z,20.79
2023-06-17T14:38:37.058Z,20.84
2023-06-17T14:41:04.344Z,20.84
2023-06-17T14:43:31.632Z,20.88
2023-06-17T14:45:59.745Z,20.92
2023-06-17T14:48:27.123Z,20.96
2023-06-17T14:50:54.544Z,20.99
2023-06-17T14:53:33.299Z,21.00
2023-06-17T14:56:34.257Z,20.99
2023-06-17T14:59:04.048Z,21.02
2023-06-17T15:01:32.735Z,21.04
2023-06-17T15:04:00.602Z,21.01
2023-06-17T15:06:28.006Z,20.97
2023-06-17T15:09:18.817Z,20.93
2023-06-17T15:11:49.108Z,20.89
2023-06-17T15:14:16.377Z,20.87
2023-06-17T15:16:43.915Z,20.88
2023-06-17T15:19:11.200Z,20.89
2023-06-17T15:21:39.072Z,20.86
2023-06-17T15:24:07.915Z,20.91
2023-06-17T15:26:36.093Z,20.93
2023-06-17T15:29:07.586Z,20.95
2023-06-17T15:31:35.432Z,20.96
2023-06-17T15:34:03.852Z,20.99
2023-06-17T15:36:31.827Z,21.05
2023-06-17T15:39:02.954Z,21.11
2023-06-17T15:41:30.673Z,21.16
2023-06-17T15:43:58.880Z,21.21
2023-06-17T15:46:26.244Z,21.19
2023-06-17T15:48:53.588Z,21.21
2023-06-17T15:51:21.126Z,21.28
2023-06-17T15:53:50.801Z,21.39
2023-06-17T15:56:19.558Z,21.50
2023-06-17T15:58:47.074Z,21.58
2023-06-17T16:01:15.117Z,21.67
2023-06-17T16:03:43.457Z,21.79
2023-06-17T16:06:11.464Z,21.86
2023-06-17T16:08:39.569Z,21.90
2023-06-17T16:11:07.046Z,21.91
2023-06-17T16:13:34.372Z,21.93
2023-06-17T16:16:01.609Z,21.96
2023-06-17T16:18:29.022Z,21.88
2023-06-17T16:20:56.462Z,21.90
2023-06-17T16:23:24.045Z,21.88
2023-06-17T16:25:56.049Z,21.86
2023-06-17T16:28:23.714Z,21.86
2023-06-17T16:30:51.255Z,21.84
2023-06-17T16:33:18.565Z,21.82
2023-06-17T16:35:49.820Z,21.73
2023-06-17T16:38:17.153Z,21.58
2023-06-17T16:40:44.547Z,21.54
2023-06-17T16:43:11.859Z,21.55
2023-06-17T16:45:39.166Z,21.54
2023-06-17T16:48:09.587Z,21.47
2023-06-17T16:50:38.041Z,21.53
2023-06-17T16:53:05.379Z,21.54
2023-06-17T16:55:34.507Z,21.53
2023-06-17T16:58:01.994Z,21.52
2023-06-17T17:00:30.965Z,21.49
2023-06-17T17:02:59.217Z,21.49
2023-06-17T17:05:26.688Z,21.47
2023-06-17T17:07:55.495Z,21.42
2023-06-17T17:10:26.331Z,21.43
2023-06-17T17:12:54.148Z,21.42
2023-06-17T17:15:23.318Z,21.40
2023-06-17T17:17:51.183Z,21.37
2023-06-17T17:20:19.564Z,21.35
2023-06-17T17:22:49.456Z,21.32
2023-06-17T17:25:17.761Z,21.27
2023-06-17T17:27:46.411Z,21.27
2023-06-17T17:30:15.631Z,21.20
2023-06-17T17:32:43.856Z,21.16
2023-06-17T17:35:12.153Z,21.12
2023-06-17T17:37:41.030Z,21.10
2023-06-17T17:40:09.508Z,21.06
2023-06-17T17:42:37.308Z,21.02
2023-06-17T17:45:05.241Z,20.99
2023-06-17T17:47:33.356Z,20.97
2023-06-17T17:50:01.609Z,20.89
2023-06-17T17:52:29.452Z,20.89
2023-06-17T17:55:01.591Z,20.81
2023-06-17T17:57:30.712Z,20.78
2023-06-17T17:59:59.023Z,20.73
2023-06-17T18:02:26.784Z,20.74
2023-06-17T18:04:54.814Z,20.70
2023-06-17T18:07:22.889Z,20.66
2023-06-17T18:09:51.068Z,20.59
2023-06-17T18:12:18.853Z,20.55
2023-06-17T18:14:46.705Z,20.54
2023-06-17T18:17:14.386Z,20.52
2023-06-17T18:19:44.838Z,20.46
2023-06-17T18:22:12.795Z,20.39
2023-06-17T18:24:40.759Z,20.37
2023-06-17T18:27:08.683Z,20.30
2023-06-17T18:29:38.095Z,20.30
2023-06-17T18:32:06.306Z,20.25
2023-06-17T18:34:34.144Z,20.26
2023-06-17T18:37:02.129Z,20.19
2023-06-17T18:39:30.034Z,20.21
2023-06-17T18:41:58.120Z,20.18
2023-06-17T18:44:25.715Z,20.16
2023-06-17T18:46:53.581Z,20.07
2023-06-17T18:49:27.501Z,20.02
2023-06-17T18:51:55.423Z,19.99
2023-06-17T18:54:24.276Z,19.92
2023-06-17T18:56:52.104Z,19.89
2023-06-17T18:59:20.220Z,19.84
2023-06-17T19:01:48.050Z,19.79
2023-06-17T19:04:16.200Z,19.69
2023-06-17T19:06:43.762Z,19.67
2023-06-17T19:09:11.588Z,19.65
2023-06-17T19:11:39.915Z,19.62
2023-06-17T19:14:07.894Z,19.60
2023-06-17T19:16:36.961Z,19.58
2023-06-17T19:19:07.160Z,19.56
2023-06-17T19:21:35.341Z,19.54
2023-06-17T19:24:03.303Z,19.49
2023-06-17T19:26:31.156Z,19.47
2023-06-17T19:28:59.648Z,19.37
2023-06-17T19:31:27.739Z,19.38
2023-06-17T19:33:55.885Z,19.36
2023-06-17T19:36:23.496Z,19.29
2023-06-17T19:38:51.197Z,19.33
2023-06-17T19:41:18.887Z,19.31
2023-06-17T19:43:48.493Z,19.27
2023-06-17T19:46:17.968Z,19.24
2023-06-17T19:48:46.233Z,19.17
2023-06-17T19:51:14.228Z,19.15
2023-06-17T19:53:42.055Z,19.11
2023-06-17T19:56:10.138Z,19.01
2023-06-17T19:58:39.154Z,18.97
2023-06-17T20:01:07.134Z,18.89
2023-06-17T20:03:35.418Z,18.84
2023-06-17T20:06:03.659Z,18.81
2023-06-17T20:08:31.582Z,18.79
2023-06-17T20:10:59.206Z,18.72
2023-06-17T20:13:27.106Z,18.66
2023-06-17T20:15:54.783Z,18.61
2023-06-17T20:18:22.595Z,18.57
2023-06-17T20:20:50.202Z,18.58
2023-06-17T20:23:18.385Z,18.56
2023-06-17T20:25:46.259Z,18.50
2023-06-17T20:28:14.083Z,18.47
2023-06-17T20:30:42.553Z,18.43
2023-06-17T20:33:10.344Z,18.41
2023-06-17T20:35:38.347Z,18.36
2023-06-17T20:38:06.751Z,18.32
2023-06-17T20:40:38.605Z,18.30
2023-06-17T20:43:06.010Z,18.27
2023-06-17T20:45:33.454Z,18.26
2023-06-17T20:48:01.170Z,18.25
2023-06-17T20:50:28.595Z,18.20
2023-06-17T20:52:57.952Z,18.23
2023-06-17T20:55:31.961Z,18.22
2023-06-17T20:57:59.411Z,18.20
2023-06-17T21:00:26.932Z,18.16
2023-06-17T21:02:54.655Z,18.12
2023-06-17T21:05:22.223Z,18.08
2023-06-17T21:07:49.735Z,18.04
2023-06-17T21:10:17.201Z,18.04
2023-06-17T21:12:45.023Z,18.06
2023-06-17T21:15:12.440Z,18.03
2023-06-17T21:17:39.909Z,18.00
2023-06-17T21:20:09.964Z,17.97
2023-06-17T21:22:37.863Z,17.94
2023-06-17T21:25:05.704Z,17.92
2023-06-17T21:27:33.119Z,17.88
2023-06-17T21:30:00.802Z,17.84
2023-06-17T21:32:28.234Z,17.80
2023-06-17T21:34:55.842Z,17.77
2023-06-17T21:37:24.083Z,17.78
2023-06-17T21:39:52.973Z,17.75
2023-06-17T21:42:20.238Z,17.73
2023-06-17T21:44:47.467Z,17.70
2023-06-17T21:47:14.887Z,17.65
2023-06-17T21:49:42.281Z,17.62
2023-06-17T21:52:09.705Z,17.61
2023-06-17T21:54:37.252Z,17.60
2023-06-17T21:57:04.723Z,17.59
2023-06-17T21:59:32.138Z,17.57
2023-06-17T22:01:59.489Z,17.58
2023-06-17T22:04:26.789Z,17.55
2023-06-17T22:07:21.192Z,17.47
2023-06-17T22:10:07.391Z,17.47
2023-06-17T22:12:46.933Z,17.45
2023-06-17T22:15:34.032Z,17.40
2023-06-17T22:18:31.766Z,17.41
2023-06-17T22:21:13.614Z,17.43
2023-06-17T22:23:41.923Z,17.43
2023-06-17T22:26:09.502Z,17.42
2023-06-17T22:28:36.825Z,17.42
2023-06-17T22:31:04.070Z,17.41
2023-06-17T22:33:31.449Z,17.36
2023-06-17T22:35:58.759Z,17.35
2023-06-17T22:38:26.240Z,17.34
2023-06-17T22:40:53.658Z,17.27
2023-06-17T22:43:21.561Z,17.23
2023-06-17T22:45:50.036Z,17.20
2023-06-17T22:48:17.478Z,17.17
2023-06-17T22:50:45.017Z,17.14
2023-06-17T22:53:12.850Z,17.14
2023-06-17T22:55:40.130Z,17.08
2023-06-17T22:58:07.417Z,17.12
2023-06-17T23:00:34.725Z,17.12
2023-06-17T23:03:02.001Z,17.07
2023-06-17T23:05:29.605Z,17.04
2023-06-17T23:07:56.985Z,17.08
2023-06-17T23:10:24.597Z,17.05
2023-06-17T23:12:52.367Z,17.02
2023-06-17T23:15:19.666Z,17.00
2023-06-17T23:17:46.911Z,16.96
2023-06-17T23:20:14.568Z,16.91
2023-06-17T23:22:42.427Z,16.94
2023-06-17T23:25:11.488Z,16.95
2023-06-17T23:27:38.879Z,16.94
2023-06-17T23:30:07.889Z,16.91
2023-06-17T23:32:35.159Z,16.87
2023-06-17T23:35:03.146Z,16.83
2023-06-17T23:37:30.416Z,16.80
2023-06-17T23:39:57.609Z,16.80
2023-06-17T23:42:24.939Z,16.80
2023-06-17T23:44:53.443Z,16.78
2023-06-17T23:47:21.412Z,16.70
2023-06-17T23:49:49.716Z,16.71
2023-06-17T23:52:17.005Z,16.68
2023-06-17T23:54:44.414Z,16.67
2023-06-17T23:57:12.173Z,16.66
2023-06-17T23:59:39.571Z,16.63
